sensor_id;sensor_type;location;lat;lon;timestamp;temperature;humidity
14934;DHT22;7560;51.364;12.384;2022-07-09T00:04:51;16.50;99.90
14934;DHT22;7560;51.364;12.384;2022-07-09T00:09:53;16.60;99.90
14934;DHT22;7560;51.364;12.384;2022-07-09T00:14:55;16.60;99.90
14934;DHT22;7560;51.364;12.384;2022-07-09T00:19:56;16.50;99.90
14934;DHT22;7560;51.364;12.384;2022-07-09T00:24:59;16.40;99.90
14934;DHT22;7560;51.364;12.384;2022-07-09T00:30:01;16.20;99.90
14934;DHT22;7560;51.364;12.384;2022-07-09T00:35:03;16.10;99.90
14934;DHT22;7560;51.364;12.384;2022-07-09T00:40:06;16.10;99.90
14934;DHT22;7560;51.364;12.384;2022-07-09T00:45:08;16.10;99.90
14934;DHT22;7560;51.364;12.384;2022-07-09T00:50:10;16.10;99.90
14934;DHT22;7560;51.364;12.384;2022-07-09T00:55:12;16.00;99.90
14934;DHT22;7560;51.364;12.384;2022-07-09T01:00:14;16.00;99.90
14934;DHT22;7560;51.364;12.384;2022-07-09T01:05:16;16.20;99.90
14934;DHT22;7560;51.364;12.384;2022-07-09T01:10:18;16.30;99.90
14934;DHT22;7560;51.364;12.384;2022-07-09T01:15:20;16.20;99.90
14934;DHT22;7560;51.364;12.384;2022-07-09T01:20:22;16.20;99.90
14934;DHT22;7560;51.364;12.384;2022-07-09T01:25:39;16.10;99.90
14934;DHT22;7560;51.364;12.384;2022-07-09T01:30:41;16.10;99.90
14934;DHT22;7560;51.364;12.384;2022-07-09T01:35:43;15.90;99.90
14934;DHT22;7560;51.364;12.384;2022-07-09T01:40:45;15.80;99.90
14934;DHT22;7560;51.364;12.384;2022-07-09T01:45:47;15.90;99.90
14934;DHT22;7560;51.364;12.384;2022-07-09T01:50:49;16.20;99.90
14934;DHT22;7560;51.364;12.384;2022-07-09T01:55:51;16.30;99.90
14934;DHT22;7560;51.364;12.384;2022-07-09T02:00:52;16.20;99.90
14934;DHT22;7560;51.364;12.384;2022-07-09T02:05:54;16.00;99.90
14934;DHT22;7560;51.364;12.384;2022-07-09T02:10:56;15.90;99.90
14934;DHT22;7560;51.364;12.384;2022-07-09T02:15:58;15.80;99.90
14934;DHT22;7560;51.364;12.384;2022-07-09T02:21:02;16.00;99.90
14934;DHT22;7560;51.364;12.384;2022-07-09T02:26:04;15.90;99.90
14934;DHT22;7560;51.364;12.384;2022-07-09T02:31:06;16.10;99.90
14934;DHT22;7560;51.364;12.384;2022-07-09T02:36:08;16.10;99.90
14934;DHT22;7560;51.364;12.384;2022-07-09T02:41:09;16.00;99.90
14934;DHT22;7560;51.364;12.384;2022-07-09T02:46:12;15.90;99.90
14934;DHT22;7560;51.364;12.384;2022-07-09T02:51:14;15.70;99.90
14934;DHT22;7560;51.364;12.384;2022-07-09T02:56:15;15.60;99.90
14934;DHT22;7560;51.364;12.384;2022-07-09T03:01:17;15.50;99.90
14934;DHT22;7560;51.364;12.384;2022-07-09T03:06:19;15.40;99.90
14934;DHT22;7560;51.364;12.384;2022-07-09T03:11:21;15.40;99.90
14934;DHT22;7560;51.364;12.384;2022-07-09T03:16:23;15.40;99.90
14934;DHT22;7560;51.364;12.384;2022-07-09T03:21:25;15.40;99.90
14934;DHT22;7560;51.364;12.384;2022-07-09T03:26:26;15.50;99.90
14934;DHT22;7560;51.364;12.384;2022-07-09T03:31:28;15.70;99.90
14934;DHT22;7560;51.364;12.384;2022-07-09T03:36:30;15.80;99.90
14934;DHT22;7560;51.364;12.384;2022-07-09T03:41:33;15.90;99.90
14934;DHT22;7560;51.364;12.384;2022-07-09T03:46:34;16.00;99.90
14934;DHT22;7560;51.364;12.384;2022-07-09T03:51:36;16.10;99.90
14934;DHT22;7560;51.364;12.384;2022-07-09T03:56:44;16.20;99.90
14934;DHT22;7560;51.364;12.384;2022-07-09T04:01:46;16.30;99.90
14934;DHT22;7560;51.364;12.384;2022-07-09T04:06:48;16.50;99.90
14934;DHT22;7560;51.364;12.384;2022-07-09T04:11:50;16.50;99.90
14934;DHT22;7560;51.364;12.384;2022-07-09T04:16:51;16.50;99.90
14934;DHT22;7560;51.364;12.384;2022-07-09T04:21:53;16.60;99.90
14934;DHT22;7560;51.364;12.384;2022-07-09T04:26:55;16.50;99.90
14934;DHT22;7560;51.364;12.384;2022-07-09T04:31:57;16.70;99.90
14934;DHT22;7560;51.364;12.384;2022-07-09T04:36:59;17.00;99.90
14934;DHT22;7560;51.364;12.384;2022-07-09T04:42:00;17.30;99.90
14934;DHT22;7560;51.364;12.384;2022-07-09T04:47:02;17.30;99.90
14934;DHT22;7560;51.364;12.384;2022-07-09T04:52:05;17.10;99.90
14934;DHT22;7560;51.364;12.384;2022-07-09T04:57:07;17.10;99.90
14934;DHT22;7560;51.364;12.384;2022-07-09T05:02:08;16.90;99.90
14934;DHT22;7560;51.364;12.384;2022-07-09T05:07:10;16.90;99.90
14934;DHT22;7560;51.364;12.384;2022-07-09T05:12:12;17.00;99.90
14934;DHT22;7560;51.364;12.384;2022-07-09T05:17:13;17.00;99.90
14934;DHT22;7560;51.364;12.384;2022-07-09T05:22:16;16.90;99.90
14934;DHT22;7560;51.364;12.384;2022-07-09T05:27:18;17.00;99.90
14934;DHT22;7560;51.364;12.384;2022-07-09T05:32:19;17.40;99.90
14934;DHT22;7560;51.364;12.384;2022-07-09T05:37:21;17.20;99.90
14934;DHT22;7560;51.364;12.384;2022-07-09T05:42:23;17.60;99.90
14934;DHT22;7560;51.364;12.384;2022-07-09T05:47:25;17.80;99.90
14934;DHT22;7560;51.364;12.384;2022-07-09T05:52:27;17.80;99.90
14934;DHT22;7560;51.364;12.384;2022-07-09T05:57:29;17.50;99.90
14934;DHT22;7560;51.364;12.384;2022-07-09T06:02:31;17.50;99.90
14934;DHT22;7560;51.364;12.384;2022-07-09T06:07:33;17.60;99.90
14934;DHT22;7560;51.364;12.384;2022-07-09T06:12:35;17.40;99.90
14934;DHT22;7560;51.364;12.384;2022-07-09T06:17:37;17.40;99.90
14934;DHT22;7560;51.364;12.384;2022-07-09T06:22:39;17.50;99.90
14934;DHT22;7560;51.364;12.384;2022-07-09T06:27:41;17.80;99.90
14934;DHT22;7560;51.364;12.384;2022-07-09T06:32:43;17.90;99.90
14934;DHT22;7560;51.364;12.384;2022-07-09T06:37:45;17.60;99.90
14934;DHT22;7560;51.364;12.384;2022-07-09T06:42:47;18.00;99.90
14934;DHT22;7560;51.364;12.384;2022-07-09T06:47:49;17.70;99.90
14934;DHT22;7560;51.364;12.384;2022-07-09T06:52:51;17.70;99.90
14934;DHT22;7560;51.364;12.384;2022-07-09T06:57:53;17.50;99.90
14934;DHT22;7560;51.364;12.384;2022-07-09T07:02:55;18.00;99.90
14934;DHT22;7560;51.364;12.384;2022-07-09T07:08:01;18.50;99.90
14934;DHT22;7560;51.364;12.384;2022-07-09T07:13:02;18.50;99.90
14934;DHT22;7560;51.364;12.384;2022-07-09T07:18:04;18.50;99.90
14934;DHT22;7560;51.364;12.384;2022-07-09T07:23:06;18.50;99.90
14934;DHT22;7560;51.364;12.384;2022-07-09T07:28:08;18.60;99.90
14934;DHT22;7560;51.364;12.384;2022-07-09T07:33:09;18.70;99.90
14934;DHT22;7560;51.364;12.384;2022-07-09T07:38:11;18.50;99.90
14934;DHT22;7560;51.364;12.384;2022-07-09T07:43:13;18.10;99.90
14934;DHT22;7560;51.364;12.384;2022-07-09T07:48:15;18.30;99.90
14934;DHT22;7560;51.364;12.384;2022-07-09T07:53:16;18.30;99.90
14934;DHT22;7560;51.364;12.384;2022-07-09T07:58:19;18.90;99.90
14934;DHT22;7560;51.364;12.384;2022-07-09T08:03:20;19.70;99.90
14934;DHT22;7560;51.364;12.384;2022-07-09T08:08:25;19.60;99.90
14934;DHT22;7560;51.364;12.384;2022-07-09T08:13:27;19.50;99.90
14934;DHT22;7560;51.364;12.384;2022-07-09T08:18:30;19.70;99.90
14934;DHT22;7560;51.364;12.384;2022-07-09T08:23:32;19.50;99.90
14934;DHT22;7560;51.364;12.384;2022-07-09T08:28:53;20.50;99.90
14934;DHT22;7560;51.364;12.384;2022-07-09T08:33:55;19.60;99.90
14934;DHT22;7560;51.364;12.384;2022-07-09T08:38:57;19.40;99.90
14934;DHT22;7560;51.364;12.384;2022-07-09T08:44:02;20.20;99.90
14934;DHT22;7560;51.364;12.384;2022-07-09T08:49:06;19.50;99.90
14934;DHT22;7560;51.364;12.384;2022-07-09T08:54:08;19.60;99.90
14934;DHT22;7560;51.364;12.384;2022-07-09T08:59:10;19.60;99.90
14934;DHT22;7560;51.364;12.384;2022-07-09T09:04:12;20.30;99.90
14934;DHT22;7560;51.364;12.384;2022-07-09T09:09:18;20.90;99.90
14934;DHT22;7560;51.364;12.384;2022-07-09T09:14:21;21.10;99.90
14934;DHT22;7560;51.364;12.384;2022-07-09T09:19:26;21.40;99.90
14934;DHT22;7560;51.364;12.384;2022-07-09T09:24:28;21.30;99.90
14934;DHT22;7560;51.364;12.384;2022-07-09T09:29:33;20.90;99.90
14934;DHT22;7560;51.364;12.384;2022-07-09T09:34:39;21.30;99.90
14934;DHT22;7560;51.364;12.384;2022-07-09T09:39:49;22.00;99.90
14934;DHT22;7560;51.364;12.384;2022-07-09T09:44:52;21.90;99.90
14934;DHT22;7560;51.364;12.384;2022-07-09T09:50:00;22.20;99.90
14934;DHT22;7560;51.364;12.384;2022-07-09T09:55:05;22.00;99.90
14934;DHT22;7560;51.364;12.384;2022-07-09T10:00:14;22.30;99.90
14934;DHT22;7560;51.364;12.384;2022-07-09T10:05:17;22.70;99.90
14934;DHT22;7560;51.364;12.384;2022-07-09T10:10:20;23.20;99.90
14934;DHT22;7560;51.364;12.384;2022-07-09T10:15:22;23.60;99.90
14934;DHT22;7560;51.364;12.384;2022-07-09T10:20:32;22.70;99.90
14934;DHT22;7560;51.364;12.384;2022-07-09T10:25:45;22.50;99.90
14934;DHT22;7560;51.364;12.384;2022-07-09T10:30:48;23.30;99.90
14934;DHT22;7560;51.364;12.384;2022-07-09T10:35:51;23.60;99.90
14934;DHT22;7560;51.364;12.384;2022-07-09T10:40:59;22.90;99.90
14934;DHT22;7560;51.364;12.384;2022-07-09T10:46:12;22.90;99.90
14934;DHT22;7560;51.364;12.384;2022-07-09T10:51:22;22.70;99.90
14934;DHT22;7560;51.364;12.384;2022-07-09T10:56:24;21.90;99.90
14934;DHT22;7560;51.364;12.384;2022-07-09T11:01:26;21.70;99.90
14934;DHT22;7560;51.364;12.384;2022-07-09T11:06:28;21.70;99.90
14934;DHT22;7560;51.364;12.384;2022-07-09T11:11:30;22.40;99.90
14934;DHT22;7560;51.364;12.384;2022-07-09T11:16:32;22.70;99.90
14934;DHT22;7560;51.364;12.384;2022-07-09T11:21:34;23.00;99.90
14934;DHT22;7560;51.364;12.384;2022-07-09T11:26:36;23.20;99.90
14934;DHT22;7560;51.364;12.384;2022-07-09T11:31:49;23.10;99.90
14934;DHT22;7560;51.364;12.384;2022-07-09T11:36:56;22.60;99.90
14934;DHT22;7560;51.364;12.384;2022-07-09T11:41:59;21.60;99.90
14934;DHT22;7560;51.364;12.384;2022-07-09T11:47:12;21.90;99.90
14934;DHT22;7560;51.364;12.384;2022-07-09T11:52:21;22.10;99.90
14934;DHT22;7560;51.364;12.384;2022-07-09T11:57:23;22.40;99.90
14934;DHT22;7560;51.364;12.384;2022-07-09T12:02:25;22.60;99.90
14934;DHT22;7560;51.364;12.384;2022-07-09T12:07:27;22.90;99.90
14934;DHT22;7560;51.364;12.384;2022-07-09T12:12:30;22.50;99.90
14934;DHT22;7560;51.364;12.384;2022-07-09T12:17:32;22.80;99.90
14934;DHT22;7560;51.364;12.384;2022-07-09T12:22:34;23.30;99.90
14934;DHT22;7560;51.364;12.384;2022-07-09T12:27:35;23.70;99.90
14934;DHT22;7560;51.364;12.384;2022-07-09T12:32:38;24.10;99.90
14934;DHT22;7560;51.364;12.384;2022-07-09T12:37:40;24.30;99.90
14934;DHT22;7560;51.364;12.384;2022-07-09T12:42:42;23.90;99.90
14934;DHT22;7560;51.364;12.384;2022-07-09T12:47:44;23.40;99.90
14934;DHT22;7560;51.364;12.384;2022-07-09T12:52:46;23.20;99.90
14934;DHT22;7560;51.364;12.384;2022-07-09T12:57:48;23.20;99.90
14934;DHT22;7560;51.364;12.384;2022-07-09T13:02:49;22.90;99.90
14934;DHT22;7560;51.364;12.384;2022-07-09T13:07:51;22.60;99.90
14934;DHT22;7560;51.364;12.384;2022-07-09T13:12:53;22.50;99.90
14934;DHT22;7560;51.364;12.384;2022-07-09T13:17:55;23.00;99.90
14934;DHT22;7560;51.364;12.384;2022-07-09T13:22:57;22.60;99.90
14934;DHT22;7560;51.364;12.384;2022-07-09T13:27:58;22.10;99.90
14934;DHT22;7560;51.364;12.384;2022-07-09T13:33:00;20.40;99.90
14934;DHT22;7560;51.364;12.384;2022-07-09T13:38:02;19.40;99.90
14934;DHT22;7560;51.364;12.384;2022-07-09T13:43:04;19.60;99.90
14934;DHT22;7560;51.364;12.384;2022-07-09T13:48:06;19.80;99.90
14934;DHT22;7560;51.364;12.384;2022-07-09T13:53:08;20.60;99.90
14934;DHT22;7560;51.364;12.384;2022-07-09T13:58:11;21.80;99.90
14934;DHT22;7560;51.364;12.384;2022-07-09T14:03:12;22.40;99.90
14934;DHT22;7560;51.364;12.384;2022-07-09T14:08:14;22.90;99.90
14934;DHT22;7560;51.364;12.384;2022-07-09T14:13:21;23.70;99.90
14934;DHT22;7560;51.364;12.384;2022-07-09T14:18:23;23.70;99.90
14934;DHT22;7560;51.364;12.384;2022-07-09T14:23:25;23.20;99.90
14934;DHT22;7560;51.364;12.384;2022-07-09T14:28:26;23.70;99.90
14934;DHT22;7560;51.364;12.384;2022-07-09T14:33:28;24.00;99.90
14934;DHT22;7560;51.364;12.384;2022-07-09T14:38:30;24.40;99.90
14934;DHT22;7560;51.364;12.384;2022-07-09T14:43:32;25.00;99.90
14934;DHT22;7560;51.364;12.384;2022-07-09T14:48:34;25.10;99.90
14934;DHT22;7560;51.364;12.384;2022-07-09T14:53:36;24.70;99.90
14934;DHT22;7560;51.364;12.384;2022-07-09T14:58:44;26.10;99.90
14934;DHT22;7560;51.364;12.384;2022-07-09T15:03:46;27.00;99.90
14934;DHT22;7560;51.364;12.384;2022-07-09T15:08:48;27.50;99.90
14934;DHT22;7560;51.364;12.384;2022-07-09T15:13:49;27.70;99.90
14934;DHT22;7560;51.364;12.384;2022-07-09T15:18:51;28.40;99.90
14934;DHT22;7560;51.364;12.384;2022-07-09T15:23:53;28.40;99.90
14934;DHT22;7560;51.364;12.384;2022-07-09T15:28:55;28.00;99.90
14934;DHT22;7560;51.364;12.384;2022-07-09T15:33:57;27.60;99.90
14934;DHT22;7560;51.364;12.384;2022-07-09T15:38:59;28.30;99.90
14934;DHT22;7560;51.364;12.384;2022-07-09T15:44:01;29.20;99.90
14934;DHT22;7560;51.364;12.384;2022-07-09T15:49:05;29.40;99.90
14934;DHT22;7560;51.364;12.384;2022-07-09T15:54:06;28.50;99.90
14934;DHT22;7560;51.364;12.384;2022-07-09T15:59:08;29.30;99.90
14934;DHT22;7560;51.364;12.384;2022-07-09T16:04:10;28.00;99.90
14934;DHT22;7560;51.364;12.384;2022-07-09T16:09:12;26.60;99.90
14934;DHT22;7560;51.364;12.384;2022-07-09T16:14:17;25.50;99.90
14934;DHT22;7560;51.364;12.384;2022-07-09T16:19:18;24.70;99.90
14934;DHT22;7560;51.364;12.384;2022-07-09T16:24:20;24.10;99.90
14934;DHT22;7560;51.364;12.384;2022-07-09T16:29:22;23.70;99.90
14934;DHT22;7560;51.364;12.384;2022-07-09T16:34:24;23.50;99.90
14934;DHT22;7560;51.364;12.384;2022-07-09T16:39:26;22.20;99.90
14934;DHT22;7560;51.364;12.384;2022-07-09T16:44:28;22.00;99.90
14934;DHT22;7560;51.364;12.384;2022-07-09T16:49:30;21.90;99.90
14934;DHT22;7560;51.364;12.384;2022-07-09T16:54:52;21.90;99.90
14934;DHT22;7560;51.364;12.384;2022-07-09T16:59:53;21.60;99.90
14934;DHT22;7560;51.364;12.384;2022-07-09T17:05:13;21.20;99.90
14934;DHT22;7560;51.364;12.384;2022-07-09T17:10:15;21.20;99.90
14934;DHT22;7560;51.364;12.384;2022-07-09T17:15:17;21.10;99.90
14934;DHT22;7560;51.364;12.384;2022-07-09T17:20:24;20.90;99.90
14934;DHT22;7560;51.364;12.384;2022-07-09T17:25:26;20.90;99.90
14934;DHT22;7560;51.364;12.384;2022-07-09T17:30:29;20.80;99.90
14934;DHT22;7560;51.364;12.384;2022-07-09T17:35:31;20.80;99.90
14934;DHT22;7560;51.364;12.384;2022-07-09T17:40:33;20.90;99.90
14934;DHT22;7560;51.364;12.384;2022-07-09T17:45:34;20.70;99.90
14934;DHT22;7560;51.364;12.384;2022-07-09T17:50:36;20.50;99.90
14934;DHT22;7560;51.364;12.384;2022-07-09T17:55:38;20.50;99.90
14934;DHT22;7560;51.364;12.384;2022-07-09T18:00:40;20.40;99.90
14934;DHT22;7560;51.364;12.384;2022-07-09T18:05:42;20.40;99.90
14934;DHT22;7560;51.364;12.384;2022-07-09T18:10:44;20.30;99.90
14934;DHT22;7560;51.364;12.384;2022-07-09T18:15:46;20.30;99.90
14934;DHT22;7560;51.364;12.384;2022-07-09T18:20:48;20.30;99.90
14934;DHT22;7560;51.364;12.384;2022-07-09T18:25:50;20.40;99.90
14934;DHT22;7560;51.364;12.384;2022-07-09T18:30:54;20.30;99.90
14934;DHT22;7560;51.364;12.384;2022-07-09T18:35:55;20.50;99.90
14934;DHT22;7560;51.364;12.384;2022-07-09T18:41:04;20.40;99.90
14934;DHT22;7560;51.364;12.384;2022-07-09T18:46:06;20.20;99.90
14934;DHT22;7560;51.364;12.384;2022-07-09T18:51:08;20.10;99.90
14934;DHT22;7560;51.364;12.384;2022-07-09T18:56:10;20.10;99.90
14934;DHT22;7560;51.364;12.384;2022-07-09T19:01:13;20.00;99.90
14934;DHT22;7560;51.364;12.384;2022-07-09T19:06:15;19.80;99.90
14934;DHT22;7560;51.364;12.384;2022-07-09T19:11:17;19.70;99.90
14934;DHT22;7560;51.364;12.384;2022-07-09T19:16:19;19.70;99.90
14934;DHT22;7560;51.364;12.384;2022-07-09T19:21:22;19.70;99.90
14934;DHT22;7560;51.364;12.384;2022-07-09T19:26:25;19.70;99.90
14934;DHT22;7560;51.364;12.384;2022-07-09T19:31:27;19.60;99.90
14934;DHT22;7560;51.364;12.384;2022-07-09T19:36:47;19.60;99.90
14934;DHT22;7560;51.364;12.384;2022-07-09T19:41:49;19.40;99.90
14934;DHT22;7560;51.364;12.384;2022-07-09T19:46:51;19.30;99.90
14934;DHT22;7560;51.364;12.384;2022-07-09T19:51:54;19.20;99.90
14934;DHT22;7560;51.364;12.384;2022-07-09T19:56:56;19.10;99.90
14934;DHT22;7560;51.364;12.384;2022-07-09T20:01:58;18.90;99.90
14934;DHT22;7560;51.364;12.384;2022-07-09T20:07:00;18.80;99.90
14934;DHT22;7560;51.364;12.384;2022-07-09T20:12:02;18.70;99.90
14934;DHT22;7560;51.364;12.384;2022-07-09T20:17:04;18.60;99.90
14934;DHT22;7560;51.364;12.384;2022-07-09T20:22:06;18.50;99.90
14934;DHT22;7560;51.364;12.384;2022-07-09T20:27:08;18.50;99.90
14934;DHT22;7560;51.364;12.384;2022-07-09T20:32:10;18.40;99.90
14934;DHT22;7560;51.364;12.384;2022-07-09T20:37:11;18.40;99.90
14934;DHT22;7560;51.364;12.384;2022-07-09T20:42:13;18.30;99.90
14934;DHT22;7560;51.364;12.384;2022-07-09T20:47:15;18.10;99.90
14934;DHT22;7560;51.364;12.384;2022-07-09T20:52:17;18.00;99.90
14934;DHT22;7560;51.364;12.384;2022-07-09T20:57:19;17.90;99.90
14934;DHT22;7560;51.364;12.384;2022-07-09T21:02:20;17.80;99.90
14934;DHT22;7560;51.364;12.384;2022-07-09T21:07:22;17.80;99.90
14934;DHT22;7560;51.364;12.384;2022-07-09T21:12:24;17.80;99.90
14934;DHT22;7560;51.364;12.384;2022-07-09T21:17:28;17.70;99.90
14934;DHT22;7560;51.364;12.384;2022-07-09T21:22:49;17.50;99.90
14934;DHT22;7560;51.364;12.384;2022-07-09T21:27:51;17.40;99.90
14934;DHT22;7560;51.364;12.384;2022-07-09T21:32:53;17.40;99.90
14934;DHT22;7560;51.364;12.384;2022-07-09T21:37:55;17.20;99.90
14934;DHT22;7560;51.364;12.384;2022-07-09T21:42:56;17.20;99.90
14934;DHT22;7560;51.364;12.384;2022-07-09T21:47:59;17.10;99.90
14934;DHT22;7560;51.364;12.384;2022-07-09T21:53:01;16.90;99.90
14934;DHT22;7560;51.364;12.384;2022-07-09T21:58:02;16.70;99.90
14934;DHT22;7560;51.364;12.384;2022-07-09T22:03:04;16.60;99.90
14934;DHT22;7560;51.364;12.384;2022-07-09T22:08:06;16.40;99.90
14934;DHT22;7560;51.364;12.384;2022-07-09T22:13:09;16.30;99.90
14934;DHT22;7560;51.364;12.384;2022-07-09T22:18:11;16.20;99.90
14934;DHT22;7560;51.364;12.384;2022-07-09T22:23:13;16.20;99.90
14934;DHT22;7560;51.364;12.384;2022-07-09T22:28:15;16.10;99.90
14934;DHT22;7560;51.364;12.384;2022-07-09T22:33:17;16.00;99.90
14934;DHT22;7560;51.364;12.384;2022-07-09T22:38:19;15.90;99.90
14934;DHT22;7560;51.364;12.384;2022-07-09T22:43:21;16.00;99.90
14934;DHT22;7560;51.364;12.384;2022-07-09T22:48:22;15.90;99.90
14934;DHT22;7560;51.364;12.384;2022-07-09T22:53:24;15.90;99.90
14934;DHT22;7560;51.364;12.384;2022-07-09T22:58:27;15.80;99.90
14934;DHT22;7560;51.364;12.384;2022-07-09T23:03:29;15.60;99.90
14934;DHT22;7560;51.364;12.384;2022-07-09T23:08:31;15.50;99.90
14934;DHT22;7560;51.364;12.384;2022-07-09T23:13:51;15.40;99.90
14934;DHT22;7560;51.364;12.384;2022-07-09T23:18:58;15.40;99.90
14934;DHT22;7560;51.364;12.384;2022-07-09T23:24:01;15.30;99.90
14934;DHT22;7560;51.364;12.384;2022-07-09T23:29:03;15.30;99.90
14934;DHT22;7560;51.364;12.384;2022-07-09T23:34:05;15.30;99.90
14934;DHT22;7560;51.364;12.384;2022-07-09T23:39:07;15.30;99.90
14934;DHT22;7560;51.364;12.384;2022-07-09T23:44:08;15.30;99.90
14934;DHT22;7560;51.364;12.384;2022-07-09T23:49:10;15.30;99.90
14934;DHT22;7560;51.364;12.384;2022-07-09T23:54:12;15.30;99.90
14934;DHT22;7560;51.364;12.384;2022-07-09T23:59:14;15.30;99.90
